sensor_id;sensor_type;location;lat;lon;timestamp;pressure;altitude;pressure_sealevel;temperature;humidity
64211;BME280;72187;48.514;14.394;2023-09-19T00:00:14;93541.97;;;16.91;81.23
64211;BME280;72187;48.514;14.394;2023-09-19T00:00:59;93545.63;;;16.88;81.22
64211;BME280;72187;48.514;14.394;2023-09-19T00:01:44;93541.12;;;16.85;81.29
64211;BME280;72187;48.514;14.394;2023-09-19T00:02:19;93544.99;;;16.85;81.39
64211;BME280;72187;48.514;14.394;2023-09-19T00:02:56;93543.19;;;16.85;81.51
64211;BME280;72187;48.514;14.394;2023-09-19T00:03:30;93539.55;;;16.86;81.51
64211;BME280;72187;48.514;14.394;2023-09-19T00:04:04;93541.89;;;16.85;81.70
64211;BME280;72187;48.514;14.394;2023-09-19T00:04:43;93541.77;;;16.87;81.86
64211;BME280;72187;48.514;14.394;2023-09-19T00:05:17;93544.80;;;16.86;81.64
64211;BME280;72187;48.514;14.394;2023-09-19T00:05:51;93544.30;;;16.85;81.79
64211;BME280;72187;48.514;14.394;2023-09-19T00:06:25;93546.90;;;16.88;81.98
64211;BME280;72187;48.514;14.394;2023-09-19T00:06:59;93545.13;;;16.90;81.81
64211;BME280;72187;48.514;14.394;2023-09-19T00:07:35;93543.36;;;16.87;81.53
64211;BME280;72187;48.514;14.394;2023-09-19T00:08:10;93541.79;;;16.83;81.48
64211;BME280;72187;48.514;14.394;2023-09-19T00:08:43;93541.33;;;16.81;81.59
64211;BME280;72187;48.514;14.394;2023-09-19T00:09:17;93540.42;;;16.81;81.63
64211;BME280;72187;48.514;14.394;2023-09-19T00:09:51;93536.33;;;16.79;81.60
64211;BME280;72187;48.514;14.394;2023-09-19T00:10:26;93540.05;;;16.82;81.63
64211;BME280;72187;48.514;14.394;2023-09-19T00:11:00;93540.86;;;16.80;81.41
64211;BME280;72187;48.514;14.394;2023-09-19T00:11:39;93539.70;;;16.77;81.52
64211;BME280;72187;48.514;14.394;2023-09-19T00:12:13;93541.21;;;16.76;81.59
64211;BME280;72187;48.514;14.394;2023-09-19T00:12:51;93538.08;;;16.75;81.70
64211;BME280;72187;48.514;14.394;2023-09-19T00:13:33;93537.33;;;16.77;81.50
64211;BME280;72187;48.514;14.394;2023-09-19T00:14:11;93536.38;;;16.67;81.45
64211;BME280;72187;48.514;14.394;2023-09-19T00:14:47;93537.52;;;16.66;81.62
64211;BME280;72187;48.514;14.394;2023-09-19T00:15:25;93537.05;;;16.65;81.70
64211;BME280;72187;48.514;14.394;2023-09-19T00:16:08;93538.61;;;16.62;81.65
64211;BME280;72187;48.514;14.394;2023-09-19T00:16:44;93537.02;;;16.60;81.61
64211;BME280;72187;48.514;14.394;2023-09-19T00:17:20;93541.59;;;16.59;81.76
64211;BME280;72187;48.514;14.394;2023-09-19T00:17:55;93539.26;;;16.58;81.74
64211;BME280;72187;48.514;14.394;2023-09-19T00:18:28;93526.37;;;16.51;81.76
64211;BME280;72187;48.514;14.394;2023-09-19T00:19:02;93537.03;;;16.59;81.88
64211;BME280;72187;48.514;14.394;2023-09-19T00:19:36;93534.38;;;16.60;82.01
64211;BME280;72187;48.514;14.394;2023-09-19T00:20:11;93536.19;;;16.60;81.88
64211;BME280;72187;48.514;14.394;2023-09-19T00:20:46;93531.60;;;16.60;82.08
64211;BME280;72187;48.514;14.394;2023-09-19T00:21:21;93533.00;;;16.59;82.09
64211;BME280;72187;48.514;14.394;2023-09-19T00:21:54;93534.85;;;16.58;82.06
64211;BME280;72187;48.514;14.394;2023-09-19T00:22:28;93532.90;;;16.59;82.12
64211;BME280;72187;48.514;14.394;2023-09-19T00:23:01;93533.90;;;16.58;82.21
64211;BME280;72187;48.514;14.394;2023-09-19T00:23:42;93536.39;;;16.55;82.10
64211;BME280;72187;48.514;14.394;2023-09-19T00:24:15;93530.96;;;16.52;82.20
64211;BME280;72187;48.514;14.394;2023-09-19T00:24:50;93532.90;;;16.51;82.26
64211;BME280;72187;48.514;14.394;2023-09-19T00:25:25;93534.83;;;16.50;82.49
64211;BME280;72187;48.514;14.394;2023-09-19T00:26:00;93535.75;;;16.52;82.40
64211;BME280;72187;48.514;14.394;2023-09-19T00:26:34;93536.94;;;16.50;82.10
64211;BME280;72187;48.514;14.394;2023-09-19T00:27:07;93536.23;;;16.49;82.01
64211;BME280;72187;48.514;14.394;2023-09-19T00:27:41;93539.27;;;16.51;81.99
64211;BME280;72187;48.514;14.394;2023-09-19T00:28:17;93535.30;;;16.50;81.77
64211;BME280;72187;48.514;14.394;2023-09-19T00:28:54;93535.90;;;16.49;81.55
64211;BME280;72187;48.514;14.394;2023-09-19T00:29:28;93537.63;;;16.48;81.44
64211;BME280;72187;48.514;14.394;2023-09-19T00:30:03;93536.21;;;16.47;81.20
64211;BME280;72187;48.514;14.394;2023-09-19T00:30:37;93538.33;;;16.47;81.25
64211;BME280;72187;48.514;14.394;2023-09-19T00:31:11;93539.34;;;16.46;81.24
64211;BME280;72187;48.514;14.394;2023-09-19T00:31:45;93536.34;;;16.45;81.09
64211;BME280;72187;48.514;14.394;2023-09-19T00:32:20;93539.63;;;16.44;81.36
64211;BME280;72187;48.514;14.394;2023-09-19T00:32:54;93537.88;;;16.44;81.39
64211;BME280;72187;48.514;14.394;2023-09-19T00:33:28;93535.86;;;16.45;81.35
64211;BME280;72187;48.514;14.394;2023-09-19T00:34:03;93536.77;;;16.45;81.44
64211;BME280;72187;48.514;14.394;2023-09-19T00:34:37;93537.73;;;16.44;81.49
64211;BME280;72187;48.514;14.394;2023-09-19T00:35:11;93543.00;;;16.46;81.60
64211;BME280;72187;48.514;14.394;2023-09-19T00:35:53;93538.75;;;16.47;81.54
64211;BME280;72187;48.514;14.394;2023-09-19T00:36:27;93537.95;;;16.47;81.61
64211;BME280;72187;48.514;14.394;2023-09-19T00:37:02;93541.63;;;16.46;81.76
64211;BME280;72187;48.514;14.394;2023-09-19T00:37:37;93538.88;;;16.44;82.05
64211;BME280;72187;48.514;14.394;2023-09-19T00:38:13;93543.88;;;16.44;82.06
64211;BME280;72187;48.514;14.394;2023-09-19T00:38:50;93539.81;;;16.43;81.98
64211;BME280;72187;48.514;14.394;2023-09-19T00:39:24;93537.95;;;16.44;81.92
64211;BME280;72187;48.514;14.394;2023-09-19T00:39:59;93540.10;;;16.46;82.03
64211;BME280;72187;48.514;14.394;2023-09-19T00:40:33;93535.36;;;16.46;81.91
64211;BME280;72187;48.514;14.394;2023-09-19T00:41:06;93537.25;;;16.47;82.16
64211;BME280;72187;48.514;14.394;2023-09-19T00:41:40;93538.31;;;16.49;81.91
64211;BME280;72187;48.514;14.394;2023-09-19T00:42:19;93535.46;;;16.50;81.86
64211;BME280;72187;48.514;14.394;2023-09-19T00:42:57;93536.25;;;16.50;81.66
64211;BME280;72187;48.514;14.394;2023-09-19T00:43:34;93538.04;;;16.51;81.78
64211;BME280;72187;48.514;14.394;2023-09-19T00:44:08;93539.36;;;16.51;81.59
64211;BME280;72187;48.514;14.394;2023-09-19T00:44:42;93539.88;;;16.52;81.68
64211;BME280;72187;48.514;14.394;2023-09-19T00:45:17;93538.02;;;16.53;81.70
64211;BME280;72187;48.514;14.394;2023-09-19T00:45:52;93539.15;;;16.51;81.61
64211;BME280;72187;48.514;14.394;2023-09-19T00:46:26;93537.14;;;16.51;81.61
64211;BME280;72187;48.514;14.394;2023-09-19T00:47:00;93541.58;;;16.52;81.69
64211;BME280;72187;48.514;14.394;2023-09-19T00:47:36;93532.34;;;16.46;81.73
64211;BME280;72187;48.514;14.394;2023-09-19T00:48:11;93540.95;;;16.51;81.76
64211;BME280;72187;48.514;14.394;2023-09-19T00:48:45;93539.67;;;16.51;81.59
64211;BME280;72187;48.514;14.394;2023-09-19T00:49:22;93530.27;;;16.46;81.61
64211;BME280;72187;48.514;14.394;2023-09-19T00:49:56;93536.54;;;16.52;81.63
64211;BME280;72187;48.514;14.394;2023-09-19T00:50:30;93536.42;;;16.53;81.53
64211;BME280;72187;48.514;14.394;2023-09-19T00:51:05;93538.36;;;16.55;81.41
64211;BME280;72187;48.514;14.394;2023-09-19T00:51:40;93538.92;;;16.55;81.37
64211;BME280;72187;48.514;14.394;2023-09-19T00:52:18;93540.27;;;16.55;81.42
64211;BME280;72187;48.514;14.394;2023-09-19T00:52:58;93539.70;;;16.56;81.31
64211;BME280;72187;48.514;14.394;2023-09-19T00:53:32;93533.38;;;16.54;81.22
64211;BME280;72187;48.514;14.394;2023-09-19T00:54:07;93537.90;;;16.56;81.31
64211;BME280;72187;48.514;14.394;2023-09-19T00:54:42;93535.91;;;16.57;81.24
64211;BME280;72187;48.514;14.394;2023-09-19T00:55:16;93534.44;;;16.57;81.31
64211;BME280;72187;48.514;14.394;2023-09-19T00:55:53;93535.82;;;16.57;81.45
64211;BME280;72187;48.514;14.394;2023-09-19T00:56:27;93537.58;;;16.57;81.38
64211;BME280;72187;48.514;14.394;2023-09-19T00:57:00;93537.45;;;16.57;81.47
64211;BME280;72187;48.514;14.394;2023-09-19T00:57:34;93538.19;;;16.58;81.35
64211;BME280;72187;48.514;14.394;2023-09-19T00:58:11;93544.41;;;16.59;81.41
64211;BME280;72187;48.514;14.394;2023-09-19T00:58:45;93545.15;;;16.59;81.33
64211;BME280;72187;48.514;14.394;2023-09-19T00:59:19;93541.94;;;16.56;81.26
64211;BME280;72187;48.514;14.394;2023-09-19T00:59:56;93542.02;;;16.57;81.38
64211;BME280;72187;48.514;14.394;2023-09-19T01:00:30;93541.66;;;16.57;81.36
64211;BME280;72187;48.514;14.394;2023-09-19T01:01:07;93537.48;;;16.56;81.50
64211;BME280;72187;48.514;14.394;2023-09-19T01:01:41;93533.91;;;16.57;81.46
64211;BME280;72187;48.514;14.394;2023-09-19T01:02:16;93535.45;;;16.60;81.25
64211;BME280;72187;48.514;14.394;2023-09-19T01:02:50;93541.33;;;16.59;81.28
64211;BME280;72187;48.514;14.394;2023-09-19T01:03:24;93538.35;;;16.58;81.08
64211;BME280;72187;48.514;14.394;2023-09-19T01:03:57;93538.09;;;16.58;81.03
64211;BME280;72187;48.514;14.394;2023-09-19T01:04:32;93537.35;;;16.59;80.84
64211;BME280;72187;48.514;14.394;2023-09-19T01:05:06;93524.64;;;16.49;80.70
64211;BME280;72187;48.514;14.394;2023-09-19T01:05:43;93535.22;;;16.58;80.67
64211;BME280;72187;48.514;14.394;2023-09-19T01:06:17;93535.39;;;16.57;80.67
64211;BME280;72187;48.514;14.394;2023-09-19T01:06:51;93534.71;;;16.65;80.22
64211;BME280;72187;48.514;14.394;2023-09-19T01:07:27;93533.40;;;16.57;80.22
64211;BME280;72187;48.514;14.394;2023-09-19T01:08:03;93538.10;;;16.57;80.18
64211;BME280;72187;48.514;14.394;2023-09-19T01:08:37;93536.38;;;16.56;80.11
64211;BME280;72187;48.514;14.394;2023-09-19T01:09:11;93536.04;;;16.54;80.43
64211;BME280;72187;48.514;14.394;2023-09-19T01:09:45;93535.16;;;16.58;80.21
64211;BME280;72187;48.514;14.394;2023-09-19T01:10:20;93534.94;;;16.56;80.20
64211;BME280;72187;48.514;14.394;2023-09-19T01:11:14;93536.41;;;16.54;80.27
64211;BME280;72187;48.514;14.394;2023-09-19T01:11:53;93536.73;;;16.48;80.49
64211;BME280;72187;48.514;14.394;2023-09-19T01:13:35;93539.23;;;16.44;80.68
64211;BME280;72187;48.514;14.394;2023-09-19T01:14:34;93533.79;;;16.42;80.87
64211;BME280;72187;48.514;14.394;2023-09-19T01:15:19;93531.84;;;16.41;80.99
64211;BME280;72187;48.514;14.394;2023-09-19T01:17:09;93532.52;;;16.37;80.95
64211;BME280;72187;48.514;14.394;2023-09-19T01:18:03;93532.98;;;16.38;80.73
64211;BME280;72187;48.514;14.394;2023-09-19T01:19:07;93531.02;;;16.35;80.83
64211;BME280;72187;48.514;14.394;2023-09-19T01:20:21;93533.33;;;16.34;80.84
64211;BME280;72187;48.514;14.394;2023-09-19T01:21:44;93532.59;;;16.33;80.95
64211;BME280;72187;48.514;14.394;2023-09-19T01:26:03;93531.79;;;16.42;81.39
64211;BME280;72187;48.514;14.394;2023-09-19T01:28:39;93535.63;;;16.39;81.57
64211;BME280;72187;48.514;14.394;2023-09-19T01:29:38;93534.96;;;16.38;81.16
64211;BME280;72187;48.514;14.394;2023-09-19T01:30:14;93534.44;;;16.27;81.37
64211;BME280;72187;48.514;14.394;2023-09-19T01:30:56;93535.13;;;16.27;81.75
64211;BME280;72187;48.514;14.394;2023-09-19T01:31:33;93542.95;;;16.30;81.73
64211;BME280;72187;48.514;14.394;2023-09-19T01:32:10;93540.71;;;16.30;81.90
64211;BME280;72187;48.514;14.394;2023-09-19T01:32:46;93537.80;;;16.33;81.97
64211;BME280;72187;48.514;14.394;2023-09-19T01:33:20;93532.58;;;16.35;81.85
64211;BME280;72187;48.514;14.394;2023-09-19T01:34:02;93533.20;;;16.33;81.63
64211;BME280;72187;48.514;14.394;2023-09-19T01:34:49;93540.98;;;16.26;81.91
64211;BME280;72187;48.514;14.394;2023-09-19T01:35:23;93531.52;;;16.21;81.88
64211;BME280;72187;48.514;14.394;2023-09-19T01:35:56;93534.48;;;16.25;81.98
64211;BME280;72187;48.514;14.394;2023-09-19T01:36:33;93527.30;;;16.19;81.84
64211;BME280;72187;48.514;14.394;2023-09-19T01:37:10;93541.81;;;16.27;81.92
64211;BME280;72187;48.514;14.394;2023-09-19T01:37:44;93538.20;;;16.27;82.04
64211;BME280;72187;48.514;14.394;2023-09-19T01:38:17;93538.21;;;16.33;81.67
64211;BME280;72187;48.514;14.394;2023-09-19T01:38:53;93542.45;;;16.34;81.74
64211;BME280;72187;48.514;14.394;2023-09-19T01:39:27;93542.10;;;16.36;81.88
64211;BME280;72187;48.514;14.394;2023-09-19T01:40:04;93544.86;;;16.39;81.50
64211;BME280;72187;48.514;14.394;2023-09-19T01:41:07;93544.67;;;16.27;81.72
64211;BME280;72187;48.514;14.394;2023-09-19T01:42:01;93542.39;;;16.20;81.92
64211;BME280;72187;48.514;14.394;2023-09-19T01:42:44;93544.45;;;16.18;81.99
64211;BME280;72187;48.514;14.394;2023-09-19T01:43:23;93547.47;;;16.22;82.40
64211;BME280;72187;48.514;14.394;2023-09-19T01:44:01;93543.18;;;16.27;82.14
64211;BME280;72187;48.514;14.394;2023-09-19T01:46:13;93536.52;;;16.23;82.40
64211;BME280;72187;48.514;14.394;2023-09-19T01:46:48;93543.39;;;16.22;82.11
64211;BME280;72187;48.514;14.394;2023-09-19T01:47:55;93539.23;;;16.30;82.35
64211;BME280;72187;48.514;14.394;2023-09-19T01:48:35;93543.38;;;16.46;81.60
64211;BME280;72187;48.514;14.394;2023-09-19T01:50:43;93547.51;;;16.20;81.89
64211;BME280;72187;48.514;14.394;2023-09-19T01:51:32;93551.82;;;16.11;82.28
64211;BME280;72187;48.514;14.394;2023-09-19T01:52:11;93553.92;;;16.12;82.85
64211;BME280;72187;48.514;14.394;2023-09-19T01:53:07;93551.86;;;16.15;82.39
64211;BME280;72187;48.514;14.394;2023-09-19T01:54:00;93554.42;;;16.10;82.63
64211;BME280;72187;48.514;14.394;2023-09-19T01:54:48;93552.33;;;16.06;82.89
64211;BME280;72187;48.514;14.394;2023-09-19T01:55:26;93548.48;;;15.98;83.01
64211;BME280;72187;48.514;14.394;2023-09-19T01:56:05;93547.36;;;15.96;83.30
64211;BME280;72187;48.514;14.394;2023-09-19T01:58:21;93556.23;;;15.97;83.49
64211;BME280;72187;48.514;14.394;2023-09-19T01:58:59;93550.01;;;15.96;83.66
64211;BME280;72187;48.514;14.394;2023-09-19T01:59:45;93550.06;;;16.01;83.90
64211;BME280;72187;48.514;14.394;2023-09-19T02:00:21;93553.07;;;16.04;84.11
64211;BME280;72187;48.514;14.394;2023-09-19T02:01:00;93553.54;;;16.06;84.06
64211;BME280;72187;48.514;14.394;2023-09-19T02:01:34;93545.42;;;15.98;83.86
64211;BME280;72187;48.514;14.394;2023-09-19T02:02:12;93551.50;;;16.01;83.81
64211;BME280;72187;48.514;14.394;2023-09-19T02:02:47;93553.88;;;16.00;83.93
64211;BME280;72187;48.514;14.394;2023-09-19T02:03:21;93552.07;;;16.04;84.18
64211;BME280;72187;48.514;14.394;2023-09-19T02:03:58;93554.46;;;16.03;84.01
64211;BME280;72187;48.514;14.394;2023-09-19T02:04:33;93554.34;;;16.05;84.14
64211;BME280;72187;48.514;14.394;2023-09-19T02:05:08;93554.86;;;16.06;84.26
64211;BME280;72187;48.514;14.394;2023-09-19T02:05:51;93552.10;;;16.07;84.21
64211;BME280;72187;48.514;14.394;2023-09-19T02:06:27;93553.63;;;16.11;84.37
64211;BME280;72187;48.514;14.394;2023-09-19T02:07:02;93554.90;;;16.14;84.12
64211;BME280;72187;48.514;14.394;2023-09-19T02:07:36;93552.73;;;16.14;84.18
64211;BME280;72187;48.514;14.394;2023-09-19T02:08:11;93552.70;;;16.13;83.97
64211;BME280;72187;48.514;14.394;2023-09-19T02:08:45;93555.11;;;16.14;84.10
64211;BME280;72187;48.514;14.394;2023-09-19T02:09:18;93557.30;;;16.18;84.08
64211;BME280;72187;48.514;14.394;2023-09-19T02:09:52;93558.34;;;16.19;83.84
64211;BME280;72187;48.514;14.394;2023-09-19T02:10:25;93557.97;;;16.18;83.87
64211;BME280;72187;48.514;14.394;2023-09-19T02:10:59;93563.37;;;16.29;83.54
64211;BME280;72187;48.514;14.394;2023-09-19T02:11:33;93562.39;;;16.27;83.26
64211;BME280;72187;48.514;14.394;2023-09-19T02:12:06;93560.80;;;16.21;83.43
64211;BME280;72187;48.514;14.394;2023-09-19T02:12:40;93561.58;;;16.16;83.48
64211;BME280;72187;48.514;14.394;2023-09-19T02:13:13;93557.95;;;16.12;83.66
64211;BME280;72187;48.514;14.394;2023-09-19T02:13:48;93561.94;;;16.11;83.78
64211;BME280;72187;48.514;14.394;2023-09-19T02:14:26;93565.48;;;16.12;83.94
64211;BME280;72187;48.514;14.394;2023-09-19T02:15:03;93557.88;;;16.06;84.11
64211;BME280;72187;48.514;14.394;2023-09-19T02:15:40;93567.23;;;16.13;84.04
64211;BME280;72187;48.514;14.394;2023-09-19T02:16:16;93568.31;;;16.14;84.20
64211;BME280;72187;48.514;14.394;2023-09-19T02:16:50;93568.04;;;16.21;84.00
64211;BME280;72187;48.514;14.394;2023-09-19T02:17:24;93567.05;;;16.21;83.91
64211;BME280;72187;48.514;14.394;2023-09-19T02:17:59;93566.38;;;16.20;83.93
64211;BME280;72187;48.514;14.394;2023-09-19T02:18:33;93558.83;;;16.14;83.87
64211;BME280;72187;48.514;14.394;2023-09-19T02:19:08;93564.51;;;16.18;83.88
64211;BME280;72187;48.514;14.394;2023-09-19T02:19:42;93562.32;;;16.19;84.07
64211;BME280;72187;48.514;14.394;2023-09-19T02:20:15;93563.54;;;16.18;83.95
64211;BME280;72187;48.514;14.394;2023-09-19T02:20:49;93564.70;;;16.19;84.11
64211;BME280;72187;48.514;14.394;2023-09-19T02:21:24;93560.67;;;16.21;83.82
64211;BME280;72187;48.514;14.394;2023-09-19T02:21:58;93559.93;;;16.21;83.86
64211;BME280;72187;48.514;14.394;2023-09-19T02:22:31;93558.55;;;16.22;83.89
64211;BME280;72187;48.514;14.394;2023-09-19T02:23:05;93561.31;;;16.21;83.72
64211;BME280;72187;48.514;14.394;2023-09-19T02:23:39;93561.55;;;16.20;83.62
64211;BME280;72187;48.514;14.394;2023-09-19T02:24:15;93557.83;;;16.20;83.51
64211;BME280;72187;48.514;14.394;2023-09-19T02:24:48;93557.38;;;16.22;83.56
64211;BME280;72187;48.514;14.394;2023-09-19T02:25:22;93559.80;;;16.23;83.54
64211;BME280;72187;48.514;14.394;2023-09-19T02:25:56;93557.94;;;16.24;83.58
64211;BME280;72187;48.514;14.394;2023-09-19T02:26:39;93557.98;;;16.24;83.51
64211;BME280;72187;48.514;14.394;2023-09-19T02:27:12;93557.70;;;16.25;83.49
64211;BME280;72187;48.514;14.394;2023-09-19T02:27:47;93560.27;;;16.27;83.51
64211;BME280;72187;48.514;14.394;2023-09-19T02:28:20;93561.22;;;16.27;83.68
64211;BME280;72187;48.514;14.394;2023-09-19T02:28:56;93560.09;;;16.29;83.57
64211;BME280;72187;48.514;14.394;2023-09-19T02:29:30;93559.20;;;16.29;83.41
64211;BME280;72187;48.514;14.394;2023-09-19T02:30:04;93560.94;;;16.29;83.42
64211;BME280;72187;48.514;14.394;2023-09-19T02:30:39;93562.37;;;16.29;83.38
64211;BME280;72187;48.514;14.394;2023-09-19T02:31:12;93559.81;;;16.29;83.35
64211;BME280;72187;48.514;14.394;2023-09-19T02:31:46;93562.09;;;16.30;83.34
64211;BME280;72187;48.514;14.394;2023-09-19T02:32:21;93564.36;;;16.30;83.31
64211;BME280;72187;48.514;14.394;2023-09-19T02:32:55;93562.25;;;16.36;83.10
64211;BME280;72187;48.514;14.394;2023-09-19T02:33:29;93562.45;;;16.34;82.97
64211;BME280;72187;48.514;14.394;2023-09-19T02:34:06;93560.66;;;16.33;83.02
64211;BME280;72187;48.514;14.394;2023-09-19T02:34:40;93559.92;;;16.40;83.01
64211;BME280;72187;48.514;14.394;2023-09-19T02:35:15;93559.35;;;16.56;81.94
64211;BME280;72187;48.514;14.394;2023-09-19T02:35:56;93560.03;;;16.43;82.13
64211;BME280;72187;48.514;14.394;2023-09-19T02:36:35;93560.05;;;16.31;82.59
64211;BME280;72187;48.514;14.394;2023-09-19T02:37:09;93559.73;;;16.28;82.82
64211;BME280;72187;48.514;14.394;2023-09-19T02:37:42;93559.86;;;16.30;82.87
64211;BME280;72187;48.514;14.394;2023-09-19T02:38:16;93562.23;;;16.38;82.70
64211;BME280;72187;48.514;14.394;2023-09-19T02:38:54;93560.44;;;16.29;82.58
64211;BME280;72187;48.514;14.394;2023-09-19T02:39:27;93559.98;;;16.29;82.88
64211;BME280;72187;48.514;14.394;2023-09-19T02:40:02;93561.52;;;16.30;83.01
64211;BME280;72187;48.514;14.394;2023-09-19T02:40:35;93562.04;;;16.26;82.94
64211;BME280;72187;48.514;14.394;2023-09-19T02:41:10;93559.21;;;16.24;82.93
64211;BME280;72187;48.514;14.394;2023-09-19T02:41:43;93557.45;;;16.25;82.95
64211;BME280;72187;48.514;14.394;2023-09-19T02:42:16;93561.23;;;16.27;82.97
64211;BME280;72187;48.514;14.394;2023-09-19T02:42:54;93562.17;;;16.24;82.91
64211;BME280;72187;48.514;14.394;2023-09-19T02:43:28;93562.84;;;16.22;82.90
64211;BME280;72187;48.514;14.394;2023-09-19T02:44:03;93562.70;;;16.21;83.01
64211;BME280;72187;48.514;14.394;2023-09-19T02:44:40;93564.51;;;16.20;83.14
64211;BME280;72187;48.514;14.394;2023-09-19T02:45:14;93563.65;;;16.21;83.19
64211;BME280;72187;48.514;14.394;2023-09-19T02:45:49;93563.52;;;16.23;83.26
64211;BME280;72187;48.514;14.394;2023-09-19T02:46:23;93563.61;;;16.24;83.28
64211;BME280;72187;48.514;14.394;2023-09-19T02:46:57;93565.61;;;16.25;83.26
64211;BME280;72187;48.514;14.394;2023-09-19T02:47:30;93566.75;;;16.26;83.40
64211;BME280;72187;48.514;14.394;2023-09-19T02:48:04;93565.06;;;16.26;83.22
64211;BME280;72187;48.514;14.394;2023-09-19T02:48:38;93567.69;;;16.25;83.34
64211;BME280;72187;48.514;14.394;2023-09-19T02:49:11;93568.00;;;16.25;83.27
64211;BME280;72187;48.514;14.394;2023-09-19T02:49:46;93567.00;;;16.25;83.22
64211;BME280;72187;48.514;14.394;2023-09-19T02:50:20;93569.43;;;16.25;83.20
64211;BME280;72187;48.514;14.394;2023-09-19T02:50:53;93565.81;;;16.25;83.05
64211;BME280;72187;48.514;14.394;2023-09-19T02:51:27;93567.23;;;16.26;83.10
64211;BME280;72187;48.514;14.394;2023-09-19T02:52:00;93569.16;;;16.28;83.08
64211;BME280;72187;48.514;14.394;2023-09-19T02:52:34;93570.43;;;16.29;82.96
64211;BME280;72187;48.514;14.394;2023-09-19T02:53:08;93570.36;;;16.30;83.02
64211;BME280;72187;48.514;14.394;2023-09-19T02:53:41;93571.97;;;16.30;83.03
64211;BME280;72187;48.514;14.394;2023-09-19T02:54:15;93573.30;;;16.28;82.81
64211;BME280;72187;48.514;14.394;2023-09-19T02:54:49;93573.62;;;16.28;82.96
64211;BME280;72187;48.514;14.394;2023-09-19T02:55:22;93572.36;;;16.26;82.87
64211;BME280;72187;48.514;14.394;2023-09-19T02:55:56;93574.70;;;16.27;82.86
64211;BME280;72187;48.514;14.394;2023-09-19T02:56:29;93572.67;;;16.28;82.83
64211;BME280;72187;48.514;14.394;2023-09-19T02:57:04;93575.15;;;16.26;82.80
64211;BME280;72187;48.514;14.394;2023-09-19T02:57:40;93570.70;;;16.25;82.83
64211;BME280;72187;48.514;14.394;2023-09-19T02:58:16;93567.33;;;16.24;82.86
64211;BME280;72187;48.514;14.394;2023-09-19T02:58:52;93568.48;;;16.25;82.82
64211;BME280;72187;48.514;14.394;2023-09-19T02:59:27;93566.05;;;16.24;82.69
64211;BME280;72187;48.514;14.394;2023-09-19T03:00:03;93569.52;;;16.26;82.65
64211;BME280;72187;48.514;14.394;2023-09-19T03:00:37;93566.19;;;16.25;82.68
64211;BME280;72187;48.514;14.394;2023-09-19T03:01:11;93565.26;;;16.27;82.76
64211;BME280;72187;48.514;14.394;2023-09-19T03:01:46;93566.13;;;16.26;82.69
64211;BME280;72187;48.514;14.394;2023-09-19T03:02:21;93564.52;;;16.27;82.73
64211;BME280;72187;48.514;14.394;2023-09-19T03:02:57;93565.20;;;16.27;82.74
64211;BME280;72187;48.514;14.394;2023-09-19T03:03:31;93563.06;;;16.28;82.76
64211;BME280;72187;48.514;14.394;2023-09-19T03:04:05;93566.98;;;16.29;82.61
64211;BME280;72187;48.514;14.394;2023-09-19T03:04:41;93562.46;;;16.30;82.59
64211;BME280;72187;48.514;14.394;2023-09-19T03:05:15;93564.45;;;16.32;82.40
64211;BME280;72187;48.514;14.394;2023-09-19T03:05:49;93563.80;;;16.29;82.36
64211;BME280;72187;48.514;14.394;2023-09-19T03:06:27;93562.55;;;16.27;82.29
64211;BME280;72187;48.514;14.394;2023-09-19T03:07:00;93562.08;;;16.27;82.32
64211;BME280;72187;48.514;14.394;2023-09-19T03:07:35;93563.23;;;16.27;82.19
64211;BME280;72187;48.514;14.394;2023-09-19T03:08:10;93563.55;;;16.27;82.35
64211;BME280;72187;48.514;14.394;2023-09-19T03:08:44;93561.85;;;16.28;82.21
64211;BME280;72187;48.514;14.394;2023-09-19T03:09:18;93561.90;;;16.28;82.38
64211;BME280;72187;48.514;14.394;2023-09-19T03:09:52;93563.58;;;16.30;82.20
64211;BME280;72187;48.514;14.394;2023-09-19T03:10:27;93565.21;;;16.30;82.18
64211;BME280;72187;48.514;14.394;2023-09-19T03:11:05;93563.80;;;16.32;82.16
64211;BME280;72187;48.514;14.394;2023-09-19T03:11:44;93566.23;;;16.32;82.16
64211;BME280;72187;48.514;14.394;2023-09-19T03:12:19;93567.77;;;16.32;82.11
64211;BME280;72187;48.514;14.394;2023-09-19T03:12:53;93564.88;;;16.31;82.13
64211;BME280;72187;48.514;14.394;2023-09-19T03:13:27;93565.48;;;16.31;82.19
64211;BME280;72187;48.514;14.394;2023-09-19T03:14:01;93566.05;;;16.32;82.15
64211;BME280;72187;48.514;14.394;2023-09-19T03:14:34;93564.10;;;16.33;82.11
64211;BME280;72187;48.514;14.394;2023-09-19T03:15:08;93562.10;;;16.32;82.05
64211;BME280;72187;48.514;14.394;2023-09-19T03:15:42;93564.76;;;16.32;82.14
64211;BME280;72187;48.514;14.394;2023-09-19T03:16:22;93564.91;;;16.32;81.95
64211;BME280;72187;48.514;14.394;2023-09-19T03:16:57;93563.79;;;16.32;81.98
64211;BME280;72187;48.514;14.394;2023-09-19T03:17:30;93561.66;;;16.33;81.91
64211;BME280;72187;48.514;14.394;2023-09-19T03:18:04;93565.52;;;16.35;81.97
64211;BME280;72187;48.514;14.394;2023-09-19T03:18:39;93565.04;;;16.35;81.82
64211;BME280;72187;48.514;14.394;2023-09-19T03:19:13;93561.81;;;16.33;81.71
64211;BME280;72187;48.514;14.394;2023-09-19T03:19:48;93563.88;;;16.31;81.48
64211;BME280;72187;48.514;14.394;2023-09-19T03:20:22;93562.52;;;16.30;81.61
64211;BME280;72187;48.514;14.394;2023-09-19T03:20:56;93561.83;;;16.30;81.62
64211;BME280;72187;48.514;14.394;2023-09-19T03:21:29;93558.73;;;16.31;81.60
64211;BME280;72187;48.514;14.394;2023-09-19T03:22:03;93557.30;;;16.31;81.68
64211;BME280;72187;48.514;14.394;2023-09-19T03:22:41;93559.83;;;16.29;81.67
64211;BME280;72187;48.514;14.394;2023-09-19T03:23:15;93560.45;;;16.29;81.65